Time;durP1;ratioP1;P1;durP2;ratioP2;P2;SDS_P1;SDS_P2;PMS_P1;PMS_P2;Temp;Humidity;BMP_temperature;BMP_pressure;BME280_temperature;BME280_humidity;BME280_pressure;Samples;Min_cycle;Max_cycle;Signal;HPM_P1;HPM_P2
2021/07/05 00:01:08;;;;;;;0.40;0.40;;;;;;;;;;5038869;28;20086;-81
2021/07/05 00:03:34;;;;;;;0.50;0.50;;;;;;;;;;5043882;28;20013;-81
2021/07/05 00:05:59;;;;;;;0.30;0.30;;;;;;;;;;5024971;28;20029;-81
2021/07/05 00:08:25;;;;;;;0.30;0.30;;;;;;;;;;5038921;28;20578;-82
2021/07/05 00:10:50;;;;;;;0.40;0.40;;;;;;;;;;5042143;28;20025;-82
2021/07/05 00:13:16;;;;;;;0.30;0.30;;;;;;;;;;5037721;28;20046;-81
2021/07/05 00:15:41;;;;;;;0.40;0.40;;;;;;;;;;5040717;28;20082;-82
2021/07/05 00:18:07;;;;;;;0.40;0.40;;;;;;;;;;5039533;28;20120;-81
2021/07/05 00:20:34;;;;;;;0.40;0.40;;;;;;;;;;5048761;28;20034;-83
2021/07/05 00:22:59;;;;;;;0.30;0.30;;;;;;;;;;5062468;28;20021;-83
2021/07/05 00:25:25;;;;;;;0.40;0.40;;;;;;;;;;5068785;28;20265;-82
2021/07/05 00:27:50;;;;;;;0.32;0.32;;;;;;;;;;5047198;28;20029;-80
2021/07/05 00:30:16;;;;;;;0.30;0.30;;;;;;;;;;5048752;28;20136;-81
2021/07/05 00:32:42;;;;;;;0.32;0.32;;;;;;;;;;5040242;28;20021;-81
2021/07/05 00:35:08;;;;;;;0.40;0.40;;;;;;;;;;5038131;28;20086;-82
2021/07/05 00:37:33;;;;;;;0.32;0.32;;;;;;;;;;5037448;28;20533;-81
2021/07/05 00:39:58;;;;;;;0.30;0.30;;;;;;;;;;5021912;28;20437;-80
2021/07/05 00:42:24;;;;;;;0.40;0.40;;;;;;;;;;5035132;28;20469;-81
2021/07/05 00:44:49;;;;;;;0.40;0.40;;;;;;;;;;5039256;28;20030;-81
2021/07/05 00:47:15;;;;;;;0.30;0.30;;;;;;;;;;5046157;28;20037;-82
2021/07/05 00:49:40;;;;;;;0.30;0.30;;;;;;;;;;5045700;28;20033;-81
2021/07/05 00:52:06;;;;;;;0.40;0.40;;;;;;;;;;5029877;28;20044;-80
2021/07/05 00:54:31;;;;;;;0.30;0.30;;;;;;;;;;5032473;28;20095;-82
2021/07/05 00:56:57;;;;;;;0.40;0.40;;;;;;;;;;5046254;28;20116;-81
2021/07/05 00:59:22;;;;;;;0.40;0.40;;;;;;;;;;5037199;28;20033;-81
2021/07/05 01:01:47;;;;;;;0.40;0.40;;;;;;;;;;5043063;28;20030;-81
2021/07/05 01:04:13;;;;;;;0.40;0.40;;;;;;;;;;5057529;28;20017;-81
2021/07/05 01:06:38;;;;;;;0.40;0.40;;;;;;;;;;5045289;28;20060;-81
2021/07/05 01:09:04;;;;;;;0.50;0.50;;;;;;;;;;5043851;28;20029;-81
2021/07/05 01:11:29;;;;;;;0.40;0.40;;;;;;;;;;5050004;28;20053;-81
2021/07/05 01:13:55;;;;;;;0.40;0.40;;;;;;;;;;5047941;28;20033;-81
2021/07/05 01:16:20;;;;;;;0.40;0.40;;;;;;;;;;5042008;28;20087;-81
2021/07/05 01:18:45;;;;;;;0.40;0.40;;;;;;;;;;5046591;28;20029;-81
2021/07/05 01:21:11;;;;;;;0.32;0.32;;;;;;;;;;5041949;28;20112;-81
2021/07/05 01:23:36;;;;;;;0.40;0.40;;;;;;;;;;5042216;28;20033;-81
2021/07/05 01:26:02;;;;;;;0.30;0.30;;;;;;;;;;5042683;28;20029;-80
2021/07/05 01:28:28;;;;;;;0.30;0.30;;;;;;;;;;5045811;28;20106;-81
2021/07/05 01:30:55;;;;;;;0.30;0.30;;;;;;;;;;5044616;28;20064;-82
2021/07/05 01:33:21;;;;;;;0.40;0.40;;;;;;;;;;5039075;28;20033;-81
2021/07/05 01:35:46;;;;;;;0.40;0.40;;;;;;;;;;5032072;28;20041;-81
2021/07/05 01:38:13;;;;;;;0.35;0.35;;;;;;;;;;5049193;28;20048;-82
2021/07/05 01:40:39;;;;;;;0.30;0.30;;;;;;;;;;5046631;28;20398;-80
2021/07/05 01:43:04;;;;;;;0.50;0.50;;;;;;;;;;5045826;28;20511;-80
2021/07/05 01:45:31;;;;;;;0.40;0.40;;;;;;;;;;5041833;28;20029;-79
2021/07/05 01:47:57;;;;;;;0.30;0.30;;;;;;;;;;5039371;28;20021;-79
2021/07/05 01:50:23;;;;;;;0.30;0.30;;;;;;;;;;5050909;28;20040;-80
2021/07/05 01:52:49;;;;;;;0.30;0.30;;;;;;;;;;5033292;28;20017;-80
2021/07/05 01:55:15;;;;;;;0.40;0.40;;;;;;;;;;5042459;28;20033;-80
2021/07/05 01:57:41;;;;;;;0.40;0.40;;;;;;;;;;5039606;28;20280;-80
2021/07/05 02:00:15;;;;;;;0.40;0.40;;;;;;;;;;5037833;28;20394;-80
2021/07/05 02:02:40;;;;;;;0.35;0.35;;;;;;;;;;5035524;28;20817;-79
2021/07/05 02:05:10;;;;;;;0.30;0.30;;;;;;;;;;5042396;28;20029;-80
2021/07/05 02:07:35;;;;;;;0.40;0.40;;;;;;;;;;5048817;28;20021;-81
2021/07/05 02:10:02;;;;;;;0.40;0.40;;;;;;;;;;5039130;28;20032;-80
2021/07/05 02:12:28;;;;;;;0.30;0.30;;;;;;;;;;5030591;28;20037;-80
2021/07/05 02:14:53;;;;;;;0.35;0.35;;;;;;;;;;5052091;28;20033;-80
2021/07/05 02:17:18;;;;;;;0.40;0.40;;;;;;;;;;5040160;28;20406;-80
2021/07/05 02:19:44;;;;;;;0.40;0.40;;;;;;;;;;5040653;28;20113;-79
2021/07/05 02:22:09;;;;;;;0.35;0.35;;;;;;;;;;5030023;28;20036;-80
2021/07/05 02:24:35;;;;;;;0.40;0.40;;;;;;;;;;5039616;28;20026;-80
2021/07/05 02:27:01;;;;;;;0.40;0.40;;;;;;;;;;5021748;28;20517;-80
2021/07/05 02:29:26;;;;;;;0.30;0.30;;;;;;;;;;5040373;28;20018;-80
2021/07/05 02:31:52;;;;;;;0.30;0.30;;;;;;;;;;5049544;28;20029;-80
2021/07/05 02:34:17;;;;;;;0.30;0.30;;;;;;;;;;5044291;28;20083;-80
2021/07/05 02:36:43;;;;;;;0.30;0.30;;;;;;;;;;5040183;28;20020;-80
2021/07/05 02:39:08;;;;;;;0.40;0.40;;;;;;;;;;5039293;28;20704;-80
2021/07/05 02:41:34;;;;;;;0.35;0.35;;;;;;;;;;5039939;28;20112;-81
2021/07/05 02:43:59;;;;;;;0.32;0.32;;;;;;;;;;5020225;28;20040;-79
2021/07/05 02:46:24;;;;;;;0.40;0.40;;;;;;;;;;5036188;28;20017;-80
2021/07/05 02:48:50;;;;;;;0.40;0.40;;;;;;;;;;5040755;28;20037;-79
2021/07/05 02:51:16;;;;;;;0.40;0.40;;;;;;;;;;5040245;28;20035;-80
2021/07/05 02:53:41;;;;;;;0.40;0.40;;;;;;;;;;5039948;28;20490;-80
2021/07/05 02:56:06;;;;;;;0.40;0.40;;;;;;;;;;5039577;28;20131;-80
2021/07/05 02:58:32;;;;;;;0.40;0.40;;;;;;;;;;5037780;28;20200;-81
2021/07/05 03:00:59;;;;;;;0.40;0.40;;;;;;;;;;5044545;28;20064;-81
2021/07/05 03:03:25;;;;;;;0.30;0.30;;;;;;;;;;5039677;28;20062;-80
2021/07/05 03:05:51;;;;;;;0.32;0.32;;;;;;;;;;5020261;28;20033;-80
2021/07/05 03:08:16;;;;;;;0.40;0.40;;;;;;;;;;5032608;28;20029;-81
2021/07/05 03:10:42;;;;;;;0.30;0.30;;;;;;;;;;5042029;28;20374;-81
2021/07/05 03:13:09;;;;;;;0.30;0.30;;;;;;;;;;5041270;28;20029;-80
2021/07/05 03:15:35;;;;;;;0.38;0.38;;;;;;;;;;5035843;28;20056;-81
2021/07/05 03:18:00;;;;;;;0.30;0.30;;;;;;;;;;5043943;28;20451;-80
2021/07/05 03:20:28;;;;;;;0.40;0.40;;;;;;;;;;5040302;28;20389;-81
2021/07/05 03:22:54;;;;;;;0.40;0.40;;;;;;;;;;5045447;28;20021;-81
2021/07/05 03:25:21;;;;;;;0.30;0.30;;;;;;;;;;5042059;28;20025;-81
2021/07/05 03:27:46;;;;;;;0.40;0.40;;;;;;;;;;5045111;28;20304;-82
2021/07/05 03:30:12;;;;;;;0.32;0.32;;;;;;;;;;5057905;28;20029;-81
2021/07/05 03:32:38;;;;;;;0.40;0.40;;;;;;;;;;5031158;28;20101;-81
2021/07/05 03:35:05;;;;;;;0.40;0.40;;;;;;;;;;5039451;28;20335;-80
2021/07/05 03:37:30;;;;;;;0.40;0.40;;;;;;;;;;5022584;28;20029;-80
2021/07/05 03:39:56;;;;;;;0.40;0.40;;;;;;;;;;5045337;28;20029;-79
2021/07/05 03:42:21;;;;;;;0.30;0.30;;;;;;;;;;5046898;28;20263;-79
2021/07/05 03:44:46;;;;;;;0.30;0.30;;;;;;;;;;5046497;28;20322;-80
2021/07/05 03:47:12;;;;;;;0.30;0.30;;;;;;;;;;5035286;28;20036;-79
2021/07/05 03:49:37;;;;;;;0.30;0.30;;;;;;;;;;5045625;28;20033;-79
2021/07/05 03:52:02;;;;;;;0.40;0.40;;;;;;;;;;5044984;28;20022;-80
2021/07/05 03:54:28;;;;;;;0.30;0.30;;;;;;;;;;5041598;28;20033;-82
2021/07/05 03:56:53;;;;;;;0.30;0.30;;;;;;;;;;5022910;28;20096;-80
2021/07/05 03:59:19;;;;;;;0.30;0.30;;;;;;;;;;5026047;28;20022;-82
2021/07/05 04:01:44;;;;;;;0.30;0.30;;;;;;;;;;5046827;28;20117;-81
2021/07/05 04:04:09;;;;;;;0.30;0.30;;;;;;;;;;5046699;28;20025;-79
2021/07/05 04:06:35;;;;;;;0.30;0.30;;;;;;;;;;5048392;28;20528;-80
2021/07/05 04:09:02;;;;;;;0.30;0.30;;;;;;;;;;5037281;28;20124;-81
2021/07/05 04:11:29;;;;;;;0.30;0.30;;;;;;;;;;5043060;28;20051;-79
2021/07/05 04:13:55;;;;;;;0.30;0.30;;;;;;;;;;5032951;28;20037;-80
2021/07/05 04:16:20;;;;;;;0.30;0.30;;;;;;;;;;5041444;28;20458;-80
2021/07/05 04:18:45;;;;;;;0.30;0.30;;;;;;;;;;5040156;28;20451;-80
2021/07/05 04:21:11;;;;;;;0.30;0.30;;;;;;;;;;5039841;28;20029;-80
2021/07/05 04:23:36;;;;;;;0.30;0.30;;;;;;;;;;5046054;28;20021;-81
2021/07/05 04:26:02;;;;;;;0.30;0.30;;;;;;;;;;5056433;28;20029;-80
2021/07/05 04:28:28;;;;;;;0.30;0.30;;;;;;;;;;5041556;28;20033;-82
2021/07/05 04:30:53;;;;;;;0.32;0.32;;;;;;;;;;5043934;28;20108;-81
2021/07/05 04:33:19;;;;;;;0.40;0.40;;;;;;;;;;5047582;28;20074;-80
2021/07/05 04:35:44;;;;;;;0.30;0.30;;;;;;;;;;5045343;28;20551;-80
2021/07/05 04:38:09;;;;;;;0.30;0.30;;;;;;;;;;5043319;28;20030;-81
2021/07/05 04:40:37;;;;;;;0.30;0.30;;;;;;;;;;5042178;28;20037;-80
2021/07/05 04:43:03;;;;;;;0.30;0.30;;;;;;;;;;5048035;28;20507;-79
2021/07/05 04:45:29;;;;;;;0.30;0.30;;;;;;;;;;5027266;28;20458;-82
2021/07/05 04:47:55;;;;;;;0.30;0.30;;;;;;;;;;5029861;28;20143;-80
2021/07/05 04:50:20;;;;;;;0.40;0.40;;;;;;;;;;5045104;28;20051;-81
2021/07/05 04:52:46;;;;;;;0.30;0.30;;;;;;;;;;5040382;28;20060;-81
2021/07/05 04:55:12;;;;;;;0.30;0.30;;;;;;;;;;5026701;28;20036;-79
2021/07/05 04:57:38;;;;;;;0.35;0.35;;;;;;;;;;5044107;28;20088;-80
2021/07/05 05:00:08;;;;;;;0.28;0.28;;;;;;;;;;5031588;28;20021;-79
2021/07/05 05:02:34;;;;;;;0.30;0.30;;;;;;;;;;5032931;28;20029;-80
2021/07/05 05:04:59;;;;;;;0.30;0.30;;;;;;;;;;5029374;28;20050;-80
2021/07/05 05:07:25;;;;;;;0.30;0.30;;;;;;;;;;5046355;28;21024;-80
2021/07/05 05:09:51;;;;;;;0.20;0.20;;;;;;;;;;5044102;28;20033;-81
2021/07/05 05:12:16;;;;;;;0.28;0.28;;;;;;;;;;5047572;28;20036;-80
2021/07/05 05:14:41;;;;;;;0.28;0.28;;;;;;;;;;5046949;28;20439;-81
2021/07/05 05:17:07;;;;;;;0.20;0.20;;;;;;;;;;5032917;28;20055;-81
2021/07/05 05:19:33;;;;;;;0.20;0.20;;;;;;;;;;5045467;28;20057;-79
2021/07/05 05:21:59;;;;;;;0.20;0.20;;;;;;;;;;5045572;28;20108;-81
2021/07/05 05:24:25;;;;;;;0.30;0.30;;;;;;;;;;5050931;28;20025;-80
2021/07/05 05:26:50;;;;;;;0.20;0.20;;;;;;;;;;5044633;28;20068;-80
2021/07/05 05:29:16;;;;;;;0.30;0.30;;;;;;;;;;5045528;28;20031;-79
2021/07/05 05:31:41;;;;;;;0.20;0.20;;;;;;;;;;5037732;28;20032;-80
2021/07/05 05:34:07;;;;;;;0.30;0.30;;;;;;;;;;5043432;28;20518;-80
2021/07/05 05:36:32;;;;;;;0.20;0.20;;;;;;;;;;5053785;28;20116;-80
2021/07/05 05:38:58;;;;;;;0.20;0.20;;;;;;;;;;5050678;28;20033;-82
2021/07/05 05:41:23;;;;;;;0.20;0.20;;;;;;;;;;5048791;28;20047;-79
2021/07/05 05:43:48;;;;;;;0.20;0.20;;;;;;;;;;5044363;28;20018;-80
2021/07/05 05:46:17;;;;;;;0.20;0.20;;;;;;;;;;5042528;28;20144;-80
2021/07/05 05:48:43;;;;;;;0.20;0.20;;;;;;;;;;5058014;28;20041;-79
2021/07/05 05:51:09;;;;;;;0.20;0.20;;;;;;;;;;5062941;28;20033;-81
2021/07/05 05:53:35;;;;;;;0.20;0.20;;;;;;;;;;5053992;28;20039;-80
2021/07/05 05:56:00;;;;;;;0.20;0.20;;;;;;;;;;5064502;28;20068;-82
2021/07/05 05:58:26;;;;;;;0.30;0.30;;;;;;;;;;5076151;28;20047;-81
2021/07/05 06:00:51;;;;;;;0.20;0.20;;;;;;;;;;5068914;28;20388;-80
2021/07/05 06:03:17;;;;;;;0.30;0.30;;;;;;;;;;5061911;28;20018;-81
2021/07/05 06:05:42;;;;;;;0.20;0.20;;;;;;;;;;5072491;28;20025;-80
2021/07/05 06:08:07;;;;;;;0.20;0.20;;;;;;;;;;5071225;28;20092;-79
2021/07/05 06:10:33;;;;;;;0.30;0.30;;;;;;;;;;5028418;28;20322;-80
2021/07/05 06:12:58;;;;;;;0.25;0.25;;;;;;;;;;5045638;28;20100;-82
2021/07/05 06:15:24;;;;;;;0.20;0.20;;;;;;;;;;5051522;28;20088;-80
2021/07/05 06:17:50;;;;;;;0.20;0.20;;;;;;;;;;5027309;28;20025;-80
2021/07/05 06:20:16;;;;;;;0.20;0.20;;;;;;;;;;5045466;28;20448;-81
2021/07/05 06:22:49;;;;;;;0.20;0.20;;;;;;;;;;5037951;28;20021;-79
2021/07/05 06:25:14;;;;;;;0.20;0.20;;;;;;;;;;5042051;28;20017;-80
2021/07/05 06:27:40;;;;;;;0.20;0.20;;;;;;;;;;5038540;28;20029;-80
2021/07/05 06:30:06;;;;;;;0.20;0.20;;;;;;;;;;5042395;28;20036;-79
2021/07/05 06:32:31;;;;;;;0.20;0.20;;;;;;;;;;5039019;28;20029;-81
2021/07/05 06:34:57;;;;;;;0.20;0.20;;;;;;;;;;5046438;28;20021;-80
2021/07/05 06:37:22;;;;;;;0.20;0.20;;;;;;;;;;5029425;28;20064;-79
2021/07/05 06:39:48;;;;;;;0.32;0.30;;;;;;;;;;5020817;28;20025;-79
2021/07/05 06:42:13;;;;;;;0.20;0.20;;;;;;;;;;5037889;28;20053;-80
2021/07/05 06:44:39;;;;;;;0.20;0.20;;;;;;;;;;5039127;28;20029;-79
2021/07/05 06:47:04;;;;;;;0.20;0.20;;;;;;;;;;5018199;28;20423;-79
2021/07/05 06:49:29;;;;;;;0.20;0.20;;;;;;;;;;5036916;28;20052;-81
2021/07/05 06:51:55;;;;;;;0.20;0.20;;;;;;;;;;5039336;28;20040;-79
2021/07/05 06:54:20;;;;;;;0.20;0.20;;;;;;;;;;5042633;28;20023;-79
2021/07/05 06:56:46;;;;;;;0.20;0.20;;;;;;;;;;5024265;28;20378;-80
2021/07/05 06:59:11;;;;;;;0.20;0.20;;;;;;;;;;5019596;28;20021;-80
2021/07/05 07:01:38;;;;;;;0.20;0.20;;;;;;;;;;5043651;28;20445;-81
2021/07/05 07:04:03;;;;;;;0.20;0.20;;;;;;;;;;5017937;28;20132;-80
2021/07/05 07:06:28;;;;;;;0.20;0.20;;;;;;;;;;5026528;28;20174;-80
2021/07/05 07:08:54;;;;;;;0.28;0.28;;;;;;;;;;5042260;28;20029;-80
2021/07/05 07:11:20;;;;;;;0.20;0.20;;;;;;;;;;5037343;28;20049;-79
2021/07/05 07:13:46;;;;;;;0.20;0.20;;;;;;;;;;5038596;28;20079;-81
2021/07/05 07:16:14;;;;;;;0.25;0.25;;;;;;;;;;5041314;28;20032;-81
2021/07/05 07:19:24;;;;;;;0.20;0.20;;;;;;;;;;5022970;28;20112;-80
2021/07/05 07:21:25;;;;;;;0.20;0.20;;;;;;;;;;5034024;28;20041;-80
2021/07/05 07:23:51;;;;;;;0.20;0.20;;;;;;;;;;5039684;28;20021;-80
2021/07/05 07:26:16;;;;;;;0.20;0.20;;;;;;;;;;5037367;28;20504;-79
2021/07/05 07:28:41;;;;;;;0.20;0.20;;;;;;;;;;5040624;28;20041;-80
2021/07/05 07:31:07;;;;;;;0.20;0.20;;;;;;;;;;5022194;28;20156;-79
2021/07/05 07:33:32;;;;;;;0.20;0.20;;;;;;;;;;5040305;28;20028;-80
2021/07/05 07:36:01;;;;;;;0.20;0.20;;;;;;;;;;5036698;28;20465;-80
2021/07/05 07:38:27;;;;;;;0.15;0.15;;;;;;;;;;5041602;28;20585;-79
2021/07/05 07:40:54;;;;;;;0.10;0.10;;;;;;;;;;5043684;28;20484;-79
2021/07/05 07:43:20;;;;;;;0.20;0.20;;;;;;;;;;5038773;28;20120;-80
2021/07/05 07:45:45;;;;;;;0.20;0.20;;;;;;;;;;5036409;28;20105;-80
2021/07/05 07:48:10;;;;;;;0.20;0.20;;;;;;;;;;5041368;28;20250;-79
2021/07/05 07:50:36;;;;;;;0.20;0.20;;;;;;;;;;5041411;28;20022;-80
2021/07/05 07:53:01;;;;;;;0.30;0.30;;;;;;;;;;5047172;28;20457;-80
2021/07/05 07:55:27;;;;;;;0.20;0.20;;;;;;;;;;5042475;28;20129;-78
2021/07/05 07:57:52;;;;;;;0.30;0.30;;;;;;;;;;5025461;28;20939;-78
2021/07/05 08:00:18;;;;;;;0.25;0.25;;;;;;;;;;5041680;28;20032;-80
2021/07/05 08:02:44;;;;;;;0.30;0.30;;;;;;;;;;5048155;28;20017;-79
2021/07/05 08:05:09;;;;;;;0.20;0.20;;;;;;;;;;5033758;28;20025;-79
2021/07/05 08:07:41;;;;;;;0.20;0.20;;;;;;;;;;5042629;28;20029;-80
2021/07/05 08:10:07;;;;;;;0.20;0.20;;;;;;;;;;5040677;28;20037;-78
2021/07/05 08:12:33;;;;;;;0.20;0.20;;;;;;;;;;5026457;28;20046;-78
2021/07/05 08:14:59;;;;;;;0.20;0.20;;;;;;;;;;5046540;28;20393;-80
2021/07/05 08:17:25;;;;;;;0.30;0.30;;;;;;;;;;5049811;28;20021;-80
2021/07/05 08:19:50;;;;;;;0.20;0.20;;;;;;;;;;5049735;28;20030;-78
2021/07/05 08:22:17;;;;;;;0.20;0.20;;;;;;;;;;5044397;28;20096;-80
2021/07/05 08:24:42;;;;;;;0.20;0.20;;;;;;;;;;5044281;28;20485;-79
2021/07/05 08:27:07;;;;;;;0.20;0.20;;;;;;;;;;5044344;28;20293;-77
2021/07/05 08:29:33;;;;;;;0.20;0.20;;;;;;;;;;5042595;28;20012;-80
2021/07/05 08:31:58;;;;;;;0.20;0.20;;;;;;;;;;5044126;28;20049;-80
2021/07/05 08:34:23;;;;;;;0.20;0.20;;;;;;;;;;5032884;28;20028;-78
2021/07/05 08:36:49;;;;;;;0.20;0.20;;;;;;;;;;5043380;28;20056;-78
2021/07/05 08:39:14;;;;;;;0.20;0.20;;;;;;;;;;5045534;28;20009;-78
2021/07/05 08:41:40;;;;;;;0.20;0.20;;;;;;;;;;5043819;28;20040;-78
2021/07/05 08:44:06;;;;;;;0.20;0.20;;;;;;;;;;5030000;28;20150;-77
2021/07/05 08:46:32;;;;;;;0.20;0.20;;;;;;;;;;5043050;28;20025;-80
2021/07/05 08:48:58;;;;;;;0.20;0.20;;;;;;;;;;5026686;28;20037;-80
2021/07/05 08:51:23;;;;;;;0.20;0.20;;;;;;;;;;5049437;28;20025;-78
2021/07/05 08:53:49;;;;;;;0.20;0.20;;;;;;;;;;5039412;28;20033;-79
2021/07/05 08:56:15;;;;;;;0.20;0.20;;;;;;;;;;5030842;28;20124;-80
2021/07/05 08:58:41;;;;;;;0.20;0.20;;;;;;;;;;5027369;28;20013;-79
2021/07/05 09:01:07;;;;;;;0.20;0.20;;;;;;;;;;5021578;28;20103;-78
2021/07/05 09:03:34;;;;;;;0.20;0.20;;;;;;;;;;5047067;28;20037;-79
2021/07/05 09:06:11;;;;;;;0.20;0.20;;;;;;;;;;5039233;28;20016;-77
2021/07/05 09:08:40;;;;;;;0.15;0.15;;;;;;;;;;5047467;28;20095;-79
2021/07/05 09:11:08;;;;;;;0.20;0.20;;;;;;;;;;5044142;28;20047;-79
2021/07/05 09:13:43;;;;;;;0.10;0.10;;;;;;;;;;5039923;28;20427;-79
2021/07/05 09:16:09;;;;;;;0.20;0.20;;;;;;;;;;5041650;28;20041;-78
2021/07/05 09:18:43;;;;;;;0.20;0.20;;;;;;;;;;5041868;28;20029;-79
2021/07/05 09:21:10;;;;;;;0.10;0.10;;;;;;;;;;5038106;28;20064;-79
2021/07/05 09:23:36;;;;;;;0.20;0.20;;;;;;;;;;5023619;28;20113;-78
2021/07/05 09:26:03;;;;;;;0.17;0.17;;;;;;;;;;5037770;28;20144;-78
2021/07/05 09:28:36;;;;;;;0.20;0.20;;;;;;;;;;5027552;28;20022;-78
2021/07/05 09:31:01;;;;;;;0.10;0.10;;;;;;;;;;5035341;28;20035;-77
2021/07/05 09:33:27;;;;;;;0.15;0.15;;;;;;;;;;5036182;28;20029;-78
2021/07/05 09:35:54;;;;;;;0.10;0.10;;;;;;;;;;5044038;28;20025;-77
2021/07/05 09:38:20;;;;;;;;;;;;;;;;;;5026399;28;20029;-77
2021/07/05 09:40:45;;;;;;;0.10;0.10;;;;;;;;;;5044629;28;19955;-78
2021/07/05 09:43:22;;;;;;;0.20;0.20;;;;;;;;;;5041287;28;20039;-78
2021/07/05 09:45:47;;;;;;;0.20;0.20;;;;;;;;;;5036895;28;20021;-77
2021/07/05 09:48:14;;;;;;;0.10;0.10;;;;;;;;;;5039630;28;20033;-77
2021/07/05 09:50:40;;;;;;;0.20;0.20;;;;;;;;;;5037252;28;20025;-77
2021/07/05 09:53:44;;;;;;;0.20;0.20;;;;;;;;;;5045884;28;20046;-76
2021/07/05 09:56:26;;;;;;;0.10;0.10;;;;;;;;;;4995482;28;20558;-77
2021/07/05 09:58:52;;;;;;;0.20;0.20;;;;;;;;;;4994386;28;20442;-77
2021/07/05 10:01:47;;;;;;;0.20;0.20;;;;;;;;;;5011057;28;20099;-77
2021/07/05 10:04:15;;;;;;;0.20;0.20;;;;;;;;;;5009497;28;20033;-78
2021/07/05 10:06:46;;;;;;;0.20;0.20;;;;;;;;;;5042851;28;20086;-77
2021/07/05 10:09:12;;;;;;;0.20;0.20;;;;;;;;;;5041240;28;20520;-78
2021/07/05 10:11:38;;;;;;;0.20;0.20;;;;;;;;;;5037761;28;20029;-78
2021/07/05 10:14:09;;;;;;;0.28;0.28;;;;;;;;;;5039734;28;20021;-77
2021/07/05 10:16:34;;;;;;;0.20;0.20;;;;;;;;;;5035928;28;20713;-77
2021/07/05 10:18:59;;;;;;;0.20;0.20;;;;;;;;;;5036455;28;20025;-77
2021/07/05 10:21:25;;;;;;;0.20;0.20;;;;;;;;;;5026527;28;20017;-77
2021/07/05 10:23:52;;;;;;;0.20;0.20;;;;;;;;;;5035844;28;20402;-77
2021/07/05 10:26:19;;;;;;;0.20;0.20;;;;;;;;;;5035433;28;20025;-78
2021/07/05 10:28:44;;;;;;;0.20;0.20;;;;;;;;;;5036645;28;20609;-76
2021/07/05 10:31:09;;;;;;;0.20;0.20;;;;;;;;;;5039247;28;20029;-77
2021/07/05 10:33:35;;;;;;;0.20;0.20;;;;;;;;;;5034925;28;20369;-77
2021/07/05 10:36:02;;;;;;;0.20;0.20;;;;;;;;;;5035243;28;20029;-77
2021/07/05 10:38:36;;;;;;;0.20;0.20;;;;;;;;;;5038547;28;20029;-77
2021/07/05 10:41:11;;;;;;;0.20;0.20;;;;;;;;;;5025166;28;20030;-78
2021/07/05 10:43:54;;;;;;;0.20;0.20;;;;;;;;;;5043664;28;20025;-77
2021/07/05 10:46:39;;;;;;;0.20;0.20;;;;;;;;;;5032567;28;20033;-77
2021/07/05 10:49:05;;;;;;;0.20;0.20;;;;;;;;;;5036386;28;20021;-77
2021/07/05 10:51:41;;;;;;;0.20;0.20;;;;;;;;;;5034504;28;20492;-77
2021/07/05 10:54:07;;;;;;;0.20;0.20;;;;;;;;;;5039151;28;20040;-77
2021/07/05 10:56:43;;;;;;;0.20;0.20;;;;;;;;;;5040443;28;20587;-77
2021/07/05 10:59:09;;;;;;;0.20;0.20;;;;;;;;;;5035595;28;20037;-77
2021/07/05 11:01:35;;;;;;;0.20;0.20;;;;;;;;;;5036919;28;20031;-78
2021/07/05 11:04:16;;;;;;;0.20;0.20;;;;;;;;;;5033549;28;20022;-77
2021/07/05 11:06:42;;;;;;;0.20;0.20;;;;;;;;;;5037364;28;20446;-77
2021/07/05 11:09:07;;;;;;;0.20;0.20;;;;;;;;;;5035180;28;20104;-76
2021/07/05 11:11:33;;;;;;;0.20;0.20;;;;;;;;;;5021206;28;20029;-75
2021/07/05 11:14:20;;;;;;;0.20;0.20;;;;;;;;;;5044214;28;20013;-76
2021/07/05 11:16:50;;;;;;;0.20;0.20;;;;;;;;;;5030638;28;20164;-77
2021/07/05 11:19:29;;;;;;;0.20;0.20;;;;;;;;;;5044040;28;20027;-75
2021/07/05 11:21:56;;;;;;;0.20;0.20;;;;;;;;;;5037754;28;20052;-77
2021/07/05 11:24:21;;;;;;;0.20;0.20;;;;;;;;;;5037271;28;20024;-75
2021/07/05 11:26:48;;;;;;;0.20;0.20;;;;;;;;;;5035956;28;20022;-76
2021/07/05 11:29:13;;;;;;;0.30;0.30;;;;;;;;;;5037140;28;20013;-77
2021/07/05 11:31:47;;;;;;;0.20;0.20;;;;;;;;;;5033824;28;20075;-78
2021/07/05 11:34:26;;;;;;;0.20;0.20;;;;;;;;;;5035616;28;20032;-78
2021/07/05 11:37:11;;;;;;;0.20;0.20;;;;;;;;;;5035691;28;20021;-77
2021/07/05 11:39:37;;;;;;;0.20;0.20;;;;;;;;;;5022486;28;20642;-77
2021/07/05 11:42:03;;;;;;;0.20;0.20;;;;;;;;;;5036598;28;20477;-76
2021/07/05 11:44:47;;;;;;;0.20;0.20;;;;;;;;;;5041879;28;20211;-77
2021/07/05 11:47:33;;;;;;;0.20;0.20;;;;;;;;;;5042143;28;20036;-76
2021/07/05 11:50:22;;;;;;;0.20;0.20;;;;;;;;;;5031733;28;20505;-77
2021/07/05 11:52:49;;;;;;;0.20;0.20;;;;;;;;;;5036682;28;20044;-76
2021/07/05 11:55:15;;;;;;;0.20;0.20;;;;;;;;;;5053835;28;20091;-77
2021/07/05 11:57:47;;;;;;;0.17;0.17;;;;;;;;;;5033154;28;20033;-76
2021/07/05 12:00:13;;;;;;;0.20;0.20;;;;;;;;;;5034615;28;20036;-76
2021/07/05 12:02:39;;;;;;;0.20;0.20;;;;;;;;;;5036997;28;20465;-76
2021/07/05 12:05:05;;;;;;;0.20;0.20;;;;;;;;;;5040194;28;20021;-76
2021/07/05 12:07:30;;;;;;;0.20;0.20;;;;;;;;;;5019552;28;20040;-76
2021/07/05 12:09:56;;;;;;;0.20;0.20;;;;;;;;;;5038729;28;20808;-77
2021/07/05 12:12:22;;;;;;;0.10;0.10;;;;;;;;;;5037063;28;20366;-76
2021/07/05 12:14:48;;;;;;;0.20;0.20;;;;;;;;;;5040339;28;20033;-76
2021/07/05 12:17:15;;;;;;;0.20;0.20;;;;;;;;;;5020797;28;20064;-77
2021/07/05 12:19:42;;;;;;;0.10;0.10;;;;;;;;;;5034877;28;20135;-77
2021/07/05 12:22:07;;;;;;;;;;;;;;;;;;5035576;28;20041;-77
2021/07/05 12:24:34;;;;;;;0.10;0.10;;;;;;;;;;5033656;28;20361;-77
2021/07/05 12:27:01;;;;;;;0.20;0.20;;;;;;;;;;5030220;28;20079;-77
2021/07/05 12:29:28;;;;;;;0.10;0.10;;;;;;;;;;5034840;28;20033;-76
2021/07/05 12:32:00;;;;;;;0.10;0.10;;;;;;;;;;5032265;28;20085;-76
2021/07/05 12:34:44;;;;;;;0.10;0.10;;;;;;;;;;5040651;28;20083;-77
2021/07/05 12:37:30;;;;;;;0.10;0.10;;;;;;;;;;5037797;28;20039;-77
2021/07/05 12:39:55;;;;;;;0.10;0.10;;;;;;;;;;5039899;28;20026;-77
2021/07/05 12:42:25;;;;;;;0.20;0.20;;;;;;;;;;5023341;28;20020;-77
2021/07/05 12:44:51;;;;;;;0.10;0.10;;;;;;;;;;5035504;28;20018;-77
2021/07/05 12:47:16;;;;;;;0.20;0.20;;;;;;;;;;5059320;28;20036;-77
2021/07/05 12:49:42;;;;;;;0.20;0.20;;;;;;;;;;5066915;28;20033;-77
2021/07/05 12:52:07;;;;;;;0.20;0.20;;;;;;;;;;5065646;28;20029;-76
2021/07/05 12:54:33;;;;;;;0.10;0.10;;;;;;;;;;5063313;28;20055;-76
2021/07/05 12:57:16;;;;;;;0.20;0.20;;;;;;;;;;5054944;28;20440;-77
2021/07/05 12:59:42;;;;;;;0.52;0.20;;;;;;;;;;5037559;28;20095;-76
2021/07/05 13:02:43;;;;;;;0.20;0.20;;;;;;;;;;5040488;28;20027;-76
2021/07/05 13:05:13;;;;;;;0.10;0.10;;;;;;;;;;5001657;28;20357;-76
2021/07/05 13:07:38;;;;;;;0.10;0.10;;;;;;;;;;5035488;28;20120;-76
2021/07/05 13:10:06;;;;;;;0.23;0.20;;;;;;;;;;5037790;28;20088;-77
2021/07/05 13:12:31;;;;;;;0.20;0.20;;;;;;;;;;5045819;28;20032;-76
2021/07/05 13:15:13;;;;;;;0.13;0.13;;;;;;;;;;5039826;28;20030;-77
2021/07/05 13:17:38;;;;;;;0.10;0.10;;;;;;;;;;5034616;28;20385;-77
2021/07/05 13:20:11;;;;;;;0.10;0.10;;;;;;;;;;5037181;28;20026;-77
2021/07/05 13:22:47;;;;;;;0.10;0.10;;;;;;;;;;5042368;28;20018;-77
2021/07/05 13:25:13;;;;;;;0.00;0.00;;;;;;;;;;5041393;28;20043;-77
2021/07/05 13:27:38;;;;;;;0.00;0.00;;;;;;;;;;5036399;28;20397;-76
2021/07/05 13:30:13;;;;;;;0.00;0.00;;;;;;;;;;5039525;28;20040;-76
2021/07/05 13:32:52;;;;;;;0.00;0.00;;;;;;;;;;5027417;28;20485;-76
2021/07/05 13:35:23;;;;;;;0.10;0.10;;;;;;;;;;5039651;28;20032;-77
2021/07/05 13:37:49;;;;;;;0.10;0.10;;;;;;;;;;5038163;28;20504;-77
2021/07/05 13:40:18;;;;;;;0.10;0.10;;;;;;;;;;5036433;28;20029;-77
2021/07/05 13:42:45;;;;;;;0.10;0.10;;;;;;;;;;5042638;28;20086;-77
2021/07/05 13:45:10;;;;;;;0.20;0.20;;;;;;;;;;5039083;28;20053;-76
2021/07/05 13:47:43;;;;;;;0.20;0.20;;;;;;;;;;5036063;28;20057;-76
2021/07/05 13:50:09;;;;;;;0.17;0.17;;;;;;;;;;5037056;28;20064;-78
2021/07/05 13:52:35;;;;;;;0.20;0.20;;;;;;;;;;5026266;28;20064;-77
2021/07/05 13:55:19;;;;;;;0.00;0.00;;;;;;;;;;5036762;28;20743;-77
2021/07/05 13:57:46;;;;;;;0.00;0.00;;;;;;;;;;5041565;28;20083;-77
2021/07/05 14:00:11;;;;;;;0.00;0.00;;;;;;;;;;5038839;28;20074;-76
2021/07/05 14:02:37;;;;;;;0.00;0.00;;;;;;;;;;5021894;28;20025;-76
2021/07/05 14:05:02;;;;;;;0.10;0.10;;;;;;;;;;5022501;28;20029;-76
2021/07/05 14:07:27;;;;;;;0.00;0.00;;;;;;;;;;5038155;28;20116;-76
2021/07/05 14:09:53;;;;;;;0.10;0.00;;;;;;;;;;5039040;28;20029;-76
2021/07/05 14:12:18;;;;;;;0.10;0.10;;;;;;;;;;5036771;28;20064;-77
2021/07/05 14:14:43;;;;;;;0.10;0.10;;;;;;;;;;5036583;28;20032;-76
2021/07/05 14:17:09;;;;;;;0.00;0.00;;;;;;;;;;5036883;28;20060;-76
2021/07/05 14:19:34;;;;;;;0.10;0.10;;;;;;;;;;5021381;28;20052;-76
2021/07/05 14:21:59;;;;;;;0.15;0.10;;;;;;;;;;5025589;28;20017;-76
2021/07/05 14:24:25;;;;;;;0.10;0.10;;;;;;;;;;5038160;28;20017;-78
2021/07/05 14:26:50;;;;;;;0.10;0.10;;;;;;;;;;5042618;28;20044;-77
2021/07/05 14:29:15;;;;;;;0.10;0.10;;;;;;;;;;5026909;28;20117;-77
2021/07/05 14:31:41;;;;;;;0.10;0.10;;;;;;;;;;5039651;28;20470;-77
2021/07/05 14:34:06;;;;;;;0.10;0.10;;;;;;;;;;5032186;28;20033;-77
2021/07/05 14:36:31;;;;;;;0.20;0.20;;;;;;;;;;5027882;28;20489;-77
2021/07/05 14:38:58;;;;;;;0.20;0.20;;;;;;;;;;5036856;28;20428;-77
2021/07/05 14:41:24;;;;;;;0.20;0.20;;;;;;;;;;5036190;28;20019;-77
2021/07/05 14:43:50;;;;;;;0.20;0.20;;;;;;;;;;5033154;28;20377;-77